createdAt,value
2019-02-23T00:00:12.745Z,6.29
2019-02-23T00:01:11.953Z,6.26
2019-02-23T00:02:11.985Z,6.10
2019-02-23T00:03:12.029Z,6.11
2019-02-23T00:04:12.061Z,6.14
2019-02-23T00:05:12.114Z,6.09
2019-02-23T00:06:12.169Z,5.96
2019-02-23T00:07:12.253Z,5.88
2019-02-23T00:08:12.235Z,5.89
2019-02-23T00:09:12.271Z,5.89
2019-02-23T00:10:12.322Z,5.91
2019-02-23T00:11:12.382Z,5.92
2019-02-23T00:12:12.401Z,5.91
2019-02-23T00:13:12.448Z,5.95
2019-02-23T00:14:12.495Z,5.92
2019-02-23T00:15:12.532Z,5.96
2019-02-23T00:16:12.623Z,6.03
2019-02-23T00:17:12.624Z,6.04
2019-02-23T00:18:12.820Z,6.06
2019-02-23T00:19:24.000Z,6.09
2019-02-23T00:20:12.749Z,6.04
2019-02-23T00:21:12.845Z,6.04
2019-02-23T00:22:12.830Z,6.07
2019-02-23T00:23:12.873Z,6.03
2019-02-23T00:24:12.914Z,6.03
2019-02-23T00:25:12.959Z,6.06
2019-02-23T00:26:13.034Z,6.04
2019-02-23T00:27:13.059Z,5.95
2019-02-23T00:28:13.091Z,6.09
2019-02-23T00:29:13.124Z,6.00
2019-02-23T00:30:13.170Z,6.04
2019-02-23T00:31:13.211Z,5.93
2019-02-23T00:32:13.286Z,6.01
2019-02-23T00:33:13.293Z,6.03
2019-02-23T00:34:13.332Z,6.00
2019-02-23T00:35:13.393Z,6.03
2019-02-23T00:36:13.416Z,6.14
2019-02-23T00:37:13.483Z,6.13
2019-02-23T00:38:13.516Z,6.09
2019-02-23T00:39:13.545Z,6.04
2019-02-23T00:40:13.592Z,6.01
2019-02-23T00:41:13.629Z,6.01
2019-02-23T00:42:13.690Z,5.98
2019-02-23T00:43:13.721Z,6.03
2019-02-23T00:44:13.766Z,6.06
2019-02-23T00:45:13.802Z,6.09
2019-02-23T00:46:13.843Z,6.06
2019-02-23T00:47:13.927Z,6.06
2019-02-23T00:48:13.934Z,6.16
2019-02-23T00:49:13.970Z,6.19
2019-02-23T00:50:14.073Z,6.16
2019-02-23T00:51:14.066Z,6.16
2019-02-23T00:52:14.129Z,6.18
2019-02-23T00:53:14.186Z,6.13
2019-02-23T00:54:14.178Z,6.18
2019-02-23T00:55:14.226Z,6.14
2019-02-23T00:56:14.264Z,6.16
2019-02-23T00:57:14.308Z,6.16
2019-02-23T00:58:14.372Z,6.14
2019-02-23T00:59:14.446Z,6.16
2019-02-23T01:00:14.438Z,6.13
2019-02-23T01:01:14.473Z,6.09
2019-02-23T01:02:14.517Z,6.16
2019-02-23T01:03:14.580Z,6.14
2019-02-23T01:04:14.602Z,6.13
2019-02-23T01:05:14.647Z,6.11
2019-02-23T01:06:14.688Z,6.11
2019-02-23T01:07:14.729Z,6.16
2019-02-23T01:08:14.795Z,6.13
2019-02-23T01:09:14.824Z,6.13
2019-02-23T01:10:14.857Z,6.13
2019-02-23T01:11:14.905Z,6.09
2019-02-23T01:12:14.951Z,6.04
2019-02-23T01:13:15.001Z,6.04
2019-02-23T01:14:15.043Z,6.06
2019-02-23T01:15:15.088Z,6.03
2019-02-23T01:16:15.110Z,5.98
2019-02-23T01:17:15.219Z,5.91
2019-02-23T01:18:15.199Z,5.86
2019-02-23T01:19:15.258Z,5.86
2019-02-23T01:20:15.283Z,5.93
2019-02-23T01:21:15.319Z,5.96
2019-02-23T01:22:15.367Z,5.91
2019-02-23T01:23:15.403Z,5.88
2019-02-23T01:24:15.466Z,5.74
2019-02-23T01:25:15.489Z,5.77
2019-02-23T01:26:15.533Z,5.73
2019-02-23T01:27:15.573Z,5.63
2019-02-23T01:28:15.616Z,5.68
2019-02-23T01:29:15.678Z,5.55
2019-02-23T01:30:15.715Z,5.63
2019-02-23T01:31:15.757Z,5.56
2019-02-23T01:32:15.779Z,5.57
2019-02-23T01:33:15.826Z,5.60
2019-02-23T01:34:15.891Z,5.55
2019-02-23T01:35:15.910Z,5.64
2019-02-23T01:36:15.952Z,5.66
2019-02-23T01:37:15.996Z,5.66
2019-02-23T01:38:16.038Z,5.64
2019-02-23T01:39:16.100Z,5.63
2019-02-23T01:40:16.135Z,5.56
2019-02-23T01:41:16.233Z,5.56
2019-02-23T01:42:16.295Z,5.49
2019-02-23T01:43:16.249Z,5.50
2019-02-23T01:44:16.305Z,5.41
2019-02-23T01:45:16.333Z,5.53
2019-02-23T01:46:16.399Z,5.45
2019-02-23T01:47:16.425Z,5.46
2019-02-23T01:48:16.455Z,5.50
2019-02-23T01:49:16.513Z,5.53
2019-02-23T01:50:16.542Z,5.55
2019-02-23T01:51:16.606Z,5.49
2019-02-23T01:52:16.626Z,5.46
2019-02-23T01:53:16.666Z,5.45
2019-02-23T01:54:16.709Z,5.45
2019-02-23T01:55:16.777Z,5.35
2019-02-23T01:56:16.799Z,5.31
2019-02-23T01:57:16.844Z,5.27
2019-02-23T01:58:16.877Z,5.20
2019-02-23T01:59:16.921Z,5.19
2019-02-23T02:00:16.987Z,5.17
2019-02-23T02:01:17.003Z,5.28
2019-02-23T02:02:17.043Z,5.23
2019-02-23T02:03:17.094Z,5.16
2019-02-23T02:04:17.129Z,5.14
2019-02-23T02:05:17.196Z,5.10
2019-02-23T02:06:17.231Z,5.04
2019-02-23T02:07:17.254Z,5.13
2019-02-23T02:08:17.298Z,5.14
2019-02-23T02:09:17.340Z,5.17
2019-02-23T02:10:17.408Z,5.23
2019-02-23T02:11:17.443Z,5.23
2019-02-23T02:12:17.485Z,5.25
2019-02-23T02:13:17.513Z,5.17
2019-02-23T02:14:17.554Z,5.20
2019-02-23T02:15:17.593Z,5.20
2019-02-23T02:16:17.648Z,5.28
2019-02-23T02:17:17.674Z,5.22
2019-02-23T02:18:17.724Z,5.28
2019-02-23T02:19:17.756Z,5.20
2019-02-23T02:20:17.799Z,5.19
2019-02-23T02:21:17.860Z,5.12
2019-02-23T02:22:17.924Z,5.12
2019-02-23T02:23:17.925Z,5.05
2019-02-23T02:24:17.964Z,5.07
2019-02-23T02:25:18.009Z,5.12
2019-02-23T02:26:18.069Z,5.09
2019-02-23T02:27:18.108Z,4.98
2019-02-23T02:28:18.137Z,4.99
2019-02-23T02:29:18.201Z,5.01
2019-02-23T02:30:18.262Z,4.95
2019-02-23T02:31:18.262Z,4.95
2019-02-23T02:32:18.326Z,4.92
2019-02-23T02:33:18.348Z,4.91
2019-02-23T02:34:18.401Z,4.94
2019-02-23T02:35:18.426Z,4.94
2019-02-23T02:36:18.482Z,4.92
2019-02-23T02:37:18.530Z,4.91
2019-02-23T02:38:18.552Z,4.95
2019-02-23T02:39:18.600Z,4.89
2019-02-23T02:40:18.662Z,4.94
2019-02-23T02:41:18.681Z,4.98
2019-02-23T02:42:18.750Z,4.92
2019-02-23T02:43:18.811Z,5.02
2019-02-23T02:44:18.811Z,5.01
2019-02-23T02:45:18.843Z,5.12
2019-02-23T02:46:18.883Z,5.19
2019-02-23T02:47:18.946Z,5.19
2019-02-23T02:48:18.994Z,5.25
2019-02-23T02:49:19.021Z,5.28
2019-02-23T02:50:24.235Z,5.16
2019-02-23T02:51:19.097Z,5.05
2019-02-23T02:52:19.133Z,4.98
2019-02-23T02:53:19.197Z,4.98
2019-02-23T02:54:19.215Z,4.94
2019-02-23T02:55:19.264Z,4.88
2019-02-23T02:56:19.299Z,4.80
2019-02-23T02:57:19.384Z,4.84
2019-02-23T02:58:19.408Z,4.83
2019-02-23T02:59:19.429Z,4.76
2019-02-23T03:00:19.463Z,4.83
2019-02-23T03:01:19.508Z,4.79
2019-02-23T03:02:19.579Z,4.73
2019-02-23T03:03:19.609Z,4.72
2019-02-23T03:04:19.657Z,4.72
2019-02-23T03:05:19.679Z,4.62
2019-02-23T03:06:19.717Z,4.69
2019-02-23T03:07:19.763Z,4.62
2019-02-23T03:08:19.813Z,4.69
2019-02-23T03:09:19.839Z,4.65
2019-02-23T03:10:19.899Z,4.61
2019-02-23T03:11:19.930Z,4.64
2019-02-23T03:12:19.967Z,4.69
2019-02-23T03:13:20.021Z,4.67
2019-02-23T03:14:20.056Z,4.73
2019-02-23T03:15:20.103Z,4.61
2019-02-23T03:16:20.131Z,4.64
2019-02-23T03:17:20.178Z,4.50
2019-02-23T03:18:20.267Z,4.50
2019-02-23T03:19:20.253Z,4.51
2019-02-23T03:20:20.297Z,4.47
2019-02-23T03:21:20.338Z,4.58
2019-02-23T03:22:20.377Z,4.70
2019-02-23T03:23:20.454Z,4.67
2019-02-23T03:24:20.460Z,4.61
2019-02-23T03:25:20.499Z,4.77
2019-02-23T03:26:20.543Z,4.72
2019-02-23T03:27:20.588Z,4.70
2019-02-23T03:28:20.663Z,4.76
2019-02-23T03:29:20.669Z,4.61
2019-02-23T03:30:20.708Z,4.59
2019-02-23T03:31:20.751Z,4.58
2019-02-23T03:32:20.792Z,4.69
2019-02-23T03:33:20.850Z,4.67
2019-02-23T03:34:20.891Z,4.59
2019-02-23T03:35:20.921Z,4.58
2019-02-23T03:36:20.957Z,4.59
2019-02-23T03:37:20.998Z,4.58
2019-02-23T03:38:21.035Z,4.62
2019-02-23T03:39:21.103Z,4.47
2019-02-23T03:40:21.119Z,4.51
2019-02-23T03:41:21.168Z,4.52
2019-02-23T03:42:21.214Z,4.40
2019-02-23T03:43:21.245Z,4.39
2019-02-23T03:44:21.304Z,4.47
2019-02-23T03:45:21.326Z,4.40
2019-02-23T03:46:21.371Z,4.42
2019-02-23T03:47:21.410Z,4.42
2019-02-23T03:48:21.462Z,4.29
2019-02-23T03:49:21.509Z,4.33
2019-02-23T03:50:21.550Z,4.29
2019-02-23T03:51:21.583Z,4.22
2019-02-23T03:52:21.615Z,4.21
2019-02-23T03:53:21.654Z,4.12
2019-02-23T03:54:21.722Z,4.08
2019-02-23T03:55:21.744Z,4.14
2019-02-23T03:56:21.783Z,4.12
2019-02-23T03:57:21.821Z,4.08
2019-02-23T03:58:21.868Z,4.06
2019-02-23T03:59:21.927Z,4.14
2019-02-23T04:00:21.962Z,4.25
2019-02-23T04:01:21.984Z,4.18
2019-02-23T04:02:22.026Z,4.24
2019-02-23T04:03:22.068Z,4.28
2019-02-23T04:04:22.107Z,4.28
2019-02-23T04:05:22.190Z,4.25
2019-02-23T04:06:22.190Z,4.21
2019-02-23T04:07:22.230Z,4.19
2019-02-23T04:08:22.281Z,4.10
2019-02-23T04:09:22.342Z,4.10
2019-02-23T04:10:22.373Z,4.15
2019-02-23T04:11:22.397Z,4.03
2019-02-23T04:12:22.445Z,4.07
2019-02-23T04:13:22.475Z,4.06
2019-02-23T04:14:22.530Z,4.06
2019-02-23T04:15:22.573Z,4.10
2019-02-23T04:16:22.600Z,4.14
2019-02-23T04:17:22.645Z,4.14
2019-02-23T04:18:22.690Z,4.18
2019-02-23T04:19:22.719Z,4.12
2019-02-23T04:20:22.777Z,4.06
2019-02-23T04:21:22.808Z,4.00
2019-02-23T04:22:22.850Z,3.92
2019-02-23T04:23:22.890Z,4.07
2019-02-23T04:24:22.933Z,3.90
2019-02-23T04:25:23.120Z,3.97
2019-02-23T04:26:23.012Z,3.97
2019-02-23T04:27:23.048Z,3.94
2019-02-23T04:28:23.104Z,3.96
2019-02-23T04:29:23.129Z,3.97
2019-02-23T04:30:23.198Z,4.12
2019-02-23T04:31:23.241Z,3.97
2019-02-23T04:32:23.397Z,3.98
2019-02-23T04:33:23.299Z,4.01
2019-02-23T04:34:23.331Z,4.04
2019-02-23T04:35:23.375Z,4.00
2019-02-23T04:36:23.444Z,4.00
2019-02-23T04:37:23.456Z,4.04
2019-02-23T04:38:23.495Z,4.07
2019-02-23T04:39:23.669Z,4.03
2019-02-23T04:40:23.578Z,4.03
2019-02-23T04:41:23.633Z,4.00
2019-02-23T04:42:23.659Z,3.98
2019-02-23T04:43:23.700Z,4.04
2019-02-23T04:44:23.739Z,4.00
2019-02-23T04:45:23.779Z,3.98
2019-02-23T04:46:23.910Z,4.00
2019-02-23T04:47:23.862Z,3.97
2019-02-23T04:48:23.903Z,3.96
2019-02-23T04:49:25.965Z,3.88
2019-02-23T04:50:23.991Z,3.94
2019-02-23T04:51:24.048Z,4.06
2019-02-23T04:52:24.064Z,4.00
2019-02-23T04:53:24.105Z,3.98
2019-02-23T04:54:24.146Z,4.00
2019-02-23T04:55:24.287Z,3.94
2019-02-23T04:56:24.251Z,3.92
2019-02-23T04:57:24.295Z,3.96
2019-02-23T04:58:24.309Z,3.85
2019-02-23T04:59:24.353Z,3.79
2019-02-23T05:00:24.388Z,3.85
2019-02-23T05:01:24.453Z,3.94
2019-02-23T05:02:24.472Z,3.76
2019-02-23T05:03:24.512Z,3.78
2019-02-23T05:04:24.551Z,3.86
2019-02-23T05:05:24.622Z,3.76
2019-02-23T05:06:24.671Z,3.79
2019-02-23T05:07:24.673Z,3.76
2019-02-23T05:08:24.717Z,3.82
2019-02-23T05:09:24.764Z,3.76
2019-02-23T05:10:24.797Z,3.79
2019-02-23T05:11:24.863Z,3.72
2019-02-23T05:12:24.897Z,3.78
2019-02-23T05:13:24.915Z,3.86
2019-02-23T05:14:24.957Z,3.83
2019-02-23T05:15:24.999Z,3.79
2019-02-23T05:16:25.066Z,3.80
2019-02-23T05:17:25.079Z,3.82
2019-02-23T05:18:25.118Z,3.76
2019-02-23T05:19:25.160Z,3.72
2019-02-23T05:20:25.210Z,3.78
2019-02-23T05:21:26.839Z,3.72
2019-02-23T05:22:25.300Z,3.82
2019-02-23T05:23:25.339Z,3.80
2019-02-23T05:24:25.370Z,3.72
2019-02-23T05:25:25.408Z,3.82
2019-02-23T05:26:25.447Z,3.85
2019-02-23T05:27:25.523Z,3.96
2019-02-23T05:28:25.524Z,3.90
2019-02-23T05:29:25.560Z,3.88
2019-02-23T05:30:25.600Z,3.90
2019-02-23T05:31:25.647Z,3.85
2019-02-23T05:32:25.703Z,3.80
2019-02-23T05:33:25.738Z,3.79
2019-02-23T05:34:25.777Z,3.76
2019-02-23T05:35:25.809Z,3.78
2019-02-23T05:36:25.848Z,3.83
2019-02-23T05:37:25.902Z,3.80
2019-02-23T05:38:25.946Z,3.75
2019-02-23T05:39:25.989Z,3.82
2019-02-23T05:40:26.011Z,3.83
2019-02-23T05:41:26.053Z,3.76
2019-02-23T05:42:26.090Z,3.80
2019-02-23T05:43:26.135Z,3.72
2019-02-23T05:44:26.203Z,3.79
2019-02-23T05:45:26.209Z,3.78
2019-02-23T05:46:26.249Z,3.78
2019-02-23T05:47:26.308Z,3.78
2019-02-23T05:48:26.354Z,3.79
2019-02-23T05:49:26.368Z,3.76
2019-02-23T05:50:26.410Z,3.75
2019-02-23T05:51:38.086Z,3.78
2019-02-23T05:52:26.490Z,3.75
2019-02-23T05:53:26.554Z,3.64
2019-02-23T05:54:26.576Z,3.58
2019-02-23T05:55:26.615Z,3.58
2019-02-23T05:56:26.665Z,3.60
2019-02-23T05:57:26.699Z,3.57
2019-02-23T05:58:26.765Z,3.53
2019-02-23T05:59:26.783Z,3.47
2019-02-23T06:00:26.818Z,3.49
2019-02-23T06:01:26.860Z,3.50
2019-02-23T06:02:26.903Z,3.44
2019-02-23T06:03:26.956Z,3.60
2019-02-23T06:04:26.980Z,3.53
2019-02-23T06:05:27.018Z,3.53
2019-02-23T06:06:27.060Z,3.61
2019-02-23T06:07:27.106Z,3.65
2019-02-23T06:08:27.168Z,3.64
2019-02-23T06:09:27.211Z,3.65
2019-02-23T06:10:27.220Z,3.65
2019-02-23T06:11:27.271Z,3.67
2019-02-23T06:12:27.301Z,3.65
2019-02-23T06:13:27.363Z,3.71
2019-02-23T06:14:27.403Z,3.67
2019-02-23T06:15:27.421Z,3.61
2019-02-23T06:16:27.458Z,3.57
2019-02-23T06:17:27.501Z,3.61
2019-02-23T06:18:27.566Z,3.53
2019-02-23T06:19:27.601Z,3.46
2019-02-23T06:20:27.633Z,3.44
2019-02-23T06:21:27.665Z,3.49
2019-02-23T06:22:27.705Z,3.39
2019-02-23T06:23:27.759Z,3.40
2019-02-23T06:24:27.846Z,3.39
2019-02-23T06:25:27.834Z,3.34
2019-02-23T06:26:27.875Z,3.53
2019-02-23T06:27:27.912Z,3.49
2019-02-23T06:28:27.942Z,3.44
2019-02-23T06:29:28.005Z,3.57
2019-02-23T06:30:28.030Z,3.57
2019-02-23T06:31:28.188Z,3.67
2019-02-23T06:32:28.106Z,3.64
2019-02-23T06:33:28.162Z,3.75
2019-02-23T06:34:28.212Z,3.78
2019-02-23T06:35:28.230Z,3.79
2019-02-23T06:36:28.269Z,3.83
2019-02-23T06:37:28.309Z,3.78
2019-02-23T06:38:28.472Z,3.79
2019-02-23T06:39:28.406Z,3.88
2019-02-23T06:40:28.446Z,3.78
2019-02-23T06:41:28.487Z,3.79
2019-02-23T06:42:28.512Z,3.79
2019-02-23T06:43:28.551Z,3.82
2019-02-23T06:44:28.615Z,3.72
2019-02-23T06:45:28.638Z,3.76
2019-02-23T06:46:28.672Z,3.78
2019-02-23T06:47:28.728Z,3.75
2019-02-23T06:48:28.766Z,3.78
2019-02-23T06:49:28.815Z,3.76
2019-02-23T06:50:28.854Z,3.88
2019-02-23T06:51:28.879Z,3.90
2019-02-23T06:52:28.914Z,3.90
2019-02-23T06:53:28.955Z,3.86
2019-02-23T06:54:28.999Z,3.89
2019-02-23T06:55:29.059Z,3.76
2019-02-23T06:56:29.078Z,3.89
2019-02-23T06:57:29.117Z,3.94
2019-02-23T06:58:29.167Z,4.03
2019-02-23T06:59:29.207Z,3.94
2019-02-23T07:00:29.253Z,3.90
2019-02-23T07:01:29.284Z,3.98
2019-02-23T07:02:29.339Z,4.00
2019-02-23T07:03:29.361Z,4.04
2019-02-23T07:04:29.400Z,4.00
2019-02-23T07:05:29.464Z,4.15
2019-02-23T07:06:29.481Z,4.14
2019-02-23T07:07:29.534Z,4.08
2019-02-23T07:08:29.567Z,4.16
2019-02-23T07:09:29.610Z,4.21
2019-02-23T07:10:29.677Z,4.26
2019-02-23T07:11:29.688Z,4.16
2019-02-23T07:12:29.720Z,4.24
2019-02-23T07:13:29.772Z,4.28
2019-02-23T07:14:29.812Z,4.36
2019-02-23T07:15:29.892Z,4.43
2019-02-23T07:16:29.903Z,4.42
2019-02-23T07:17:29.927Z,4.50
2019-02-23T07:18:29.997Z,4.54
2019-02-23T07:19:30.017Z,4.50
2019-02-23T07:20:30.085Z,4.62
2019-02-23T07:21:30.100Z,4.65
2019-02-23T07:22:31.918Z,4.73
2019-02-23T07:23:30.173Z,4.72
2019-02-23T07:24:30.213Z,4.76
2019-02-23T07:25:30.269Z,4.77
2019-02-23T07:26:30.309Z,4.76
2019-02-23T07:27:30.339Z,4.89
2019-02-23T07:28:30.377Z,4.75
2019-02-23T07:29:30.419Z,4.80
2019-02-23T07:30:30.464Z,4.77
2019-02-23T07:31:30.523Z,4.86
2019-02-23T07:32:30.544Z,4.89
2019-02-23T07:33:33.167Z,4.80
2019-02-23T07:34:30.626Z,4.86
2019-02-23T07:35:30.679Z,4.89
2019-02-23T07:36:30.738Z,4.95
2019-02-23T07:37:30.795Z,5.01
2019-02-23T07:38:30.790Z,4.94
2019-02-23T07:39:30.834Z,4.99
2019-02-23T07:40:30.872Z,5.02
2019-02-23T07:41:30.916Z,5.02
2019-02-23T07:42:30.975Z,5.12
2019-02-23T07:43:30.998Z,5.10
2019-02-23T07:44:31.038Z,5.14
2019-02-23T07:45:31.081Z,5.23
2019-02-23T07:46:31.173Z,5.22
2019-02-23T07:47:31.162Z,5.22
2019-02-23T07:48:31.201Z,5.25
2019-02-23T07:49:31.268Z,5.32
2019-02-23T07:50:31.292Z,5.30
2019-02-23T07:51:31.351Z,5.48
2019-02-23T07:52:31.397Z,5.63
2019-02-23T07:53:31.428Z,5.57
2019-02-23T07:54:31.456Z,5.68
2019-02-23T07:55:31.505Z,5.85
2019-02-23T07:56:31.537Z,5.71
2019-02-23T07:57:31.614Z,5.75
2019-02-23T07:58:31.643Z,5.82
2019-02-23T07:59:31.668Z,5.93
2019-02-23T08:00:31.754Z,5.96
2019-02-23T08:01:31.760Z,5.88
2019-02-23T08:02:31.811Z,5.89
2019-02-23T08:03:31.834Z,6.09
2019-02-23T08:04:31.883Z,6.46
2019-02-23T08:05:31.926Z,7.07
2019-02-23T08:06:31.959Z,7.41
2019-02-23T08:07:32.035Z,7.94
2019-02-23T08:08:32.072Z,8.65
2019-02-23T08:09:32.190Z,8.94
2019-02-23T08:10:32.137Z,9.52
2019-02-23T08:11:32.172Z,9.61
2019-02-23T08:12:32.234Z,9.60
2019-02-23T08:13:32.278Z,9.82
2019-02-23T08:14:32.311Z,10.06
2019-02-23T08:15:32.356Z,9.83
2019-02-23T08:16:32.472Z,9.96
2019-02-23T08:17:32.435Z,10.04
2019-02-23T08:18:32.500Z,10.21
2019-02-23T08:19:32.527Z,10.60
2019-02-23T08:20:32.567Z,10.84
2019-02-23T08:21:32.619Z,10.66
2019-02-23T08:22:37.392Z,10.14
2019-02-23T08:23:32.745Z,10.47
2019-02-23T08:24:32.798Z,10.95
2019-02-23T08:25:32.804Z,10.73
2019-02-23T08:26:32.840Z,10.88
2019-02-23T08:27:32.897Z,11.09
2019-02-23T08:28:32.967Z,11.31
2019-02-23T08:29:32.988Z,11.75
2019-02-23T08:30:33.073Z,11.97
2019-02-23T08:31:33.078Z,11.41
2019-02-23T08:32:33.125Z,11.46
2019-02-23T08:33:33.192Z,11.14
2019-02-23T08:34:33.218Z,11.01
2019-02-23T08:35:33.263Z,11.19
2019-02-23T08:36:33.317Z,11.28
2019-02-23T08:37:33.402Z,10.80
2019-02-23T08:38:33.422Z,10.98
2019-02-23T08:39:33.451Z,11.06
2019-02-23T08:40:33.539Z,10.62
2019-02-23T08:41:33.552Z,10.81
2019-02-23T08:42:33.597Z,10.52
2019-02-23T08:43:33.665Z,10.55
2019-02-23T08:44:33.711Z,10.99
2019-02-23T08:45:33.769Z,10.80
2019-02-23T08:46:33.787Z,11.24
2019-02-23T08:47:33.842Z,11.50
2019-02-23T08:48:33.931Z,11.57
2019-02-23T08:49:33.935Z,11.50
2019-02-23T08:50:33.982Z,11.65
2019-02-23T08:51:34.030Z,11.57
2019-02-23T08:52:34.076Z,11.29
2019-02-23T08:53:34.141Z,11.20
2019-02-23T08:54:34.187Z,11.46
2019-02-23T08:55:34.216Z,11.39
2019-02-23T08:56:34.274Z,11.50
2019-02-23T08:57:34.321Z,11.52
2019-02-23T08:58:34.364Z,11.34
2019-02-23T08:59:34.437Z,11.31
2019-02-23T09:00:34.462Z,11.29
2019-02-23T09:01:34.519Z,11.01
2019-02-23T09:02:34.580Z,11.20
2019-02-23T09:03:34.615Z,11.31
2019-02-23T09:04:34.687Z,11.49
2019-02-23T09:05:34.710Z,11.53
2019-02-23T09:06:34.754Z,11.54
2019-02-23T09:07:34.810Z,11.53
2019-02-23T09:08:34.859Z,11.75
2019-02-23T09:09:34.915Z,11.75
2019-02-23T09:10:34.945Z,11.78
2019-02-23T09:11:35.024Z,11.46
2019-02-23T09:12:35.052Z,11.24
2019-02-23T09:13:35.091Z,11.44
2019-02-23T09:14:35.149Z,11.41
2019-02-23T09:15:35.192Z,11.38
2019-02-23T09:16:35.262Z,11.07
2019-02-23T09:17:35.317Z,11.56
2019-02-23T09:18:35.466Z,11.80
2019-02-23T09:19:35.387Z,11.94
2019-02-23T09:20:35.472Z,12.08
2019-02-23T09:21:35.497Z,12.13
2019-02-23T09:22:35.536Z,12.24
2019-02-23T09:23:35.594Z,12.13
2019-02-23T09:24:35.646Z,11.99
2019-02-23T09:25:35.705Z,11.93
2019-02-23T09:26:35.734Z,11.89
2019-02-23T09:27:35.780Z,11.56
2019-02-23T09:28:35.831Z,11.09
2019-02-23T09:29:35.887Z,10.91
2019-02-23T09:30:35.948Z,11.01
2019-02-23T09:31:35.990Z,11.11
2019-02-23T09:32:36.035Z,11.32
2019-02-23T09:33:36.086Z,11.03
2019-02-23T09:34:36.126Z,11.02
2019-02-23T09:35:36.202Z,11.03
2019-02-23T09:36:36.380Z,11.34
2019-02-23T09:37:36.299Z,11.31
2019-02-23T09:38:36.325Z,11.54
2019-02-23T09:39:36.375Z,11.77
2019-02-23T09:40:36.424Z,11.56
2019-02-23T09:41:36.500Z,11.32
2019-02-23T09:42:36.540Z,11.19
2019-02-23T09:43:36.701Z,10.99
2019-02-23T09:44:36.637Z,11.11
2019-02-23T09:45:36.691Z,11.21
2019-02-23T09:46:36.741Z,11.41
2019-02-23T09:47:36.774Z,11.72
2019-02-23T09:48:36.829Z,11.74
2019-02-23T09:49:36.869Z,11.65
2019-02-23T09:50:36.997Z,11.53
2019-02-23T09:51:36.989Z,11.61
2019-02-23T09:52:37.017Z,11.65
2019-02-23T09:53:37.075Z,11.72
2019-02-23T09:54:37.129Z,11.59
2019-02-23T09:55:37.172Z,11.75
2019-02-23T09:56:37.243Z,11.89
2019-02-23T09:57:37.291Z,11.90
2019-02-23T09:58:37.318Z,11.87
2019-02-23T09:59:39.928Z,11.68
2019-02-23T10:00:37.447Z,11.61
2019-02-23T10:01:37.474Z,11.75
2019-02-23T10:02:37.546Z,11.75
2019-02-23T10:03:37.587Z,11.52
2019-02-23T10:04:37.619Z,11.13
2019-02-23T10:05:38.327Z,11.20
2019-02-23T10:06:37.803Z,11.24
2019-02-23T10:07:37.795Z,11.19
2019-02-23T10:08:37.828Z,11.24
2019-02-23T10:09:37.870Z,11.47
2019-02-23T10:10:37.929Z,11.68
2019-02-23T10:11:37.968Z,11.94
2019-02-23T10:12:38.046Z,12.01
2019-02-23T10:13:38.086Z,12.11
2019-02-23T10:14:38.132Z,12.23
2019-02-23T10:15:38.179Z,12.24
2019-02-23T10:16:38.217Z,12.30
2019-02-23T10:17:38.296Z,12.13
2019-02-23T10:18:38.347Z,12.11
2019-02-23T10:19:38.382Z,12.29
2019-02-23T10:20:38.419Z,11.94
2019-02-23T10:21:38.469Z,11.97
2019-02-23T10:22:39.602Z,11.68
2019-02-23T10:23:38.606Z,11.57
2019-02-23T10:24:38.632Z,11.34
2019-02-23T10:25:38.680Z,11.56
2019-02-23T10:26:38.719Z,11.57
2019-02-23T10:27:38.777Z,11.50
2019-02-23T10:28:38.855Z,11.67
2019-02-23T10:29:38.870Z,12.05
2019-02-23T10:30:38.932Z,12.33
2019-02-23T10:31:39.036Z,12.39
2019-02-23T10:32:39.017Z,12.60
2019-02-23T10:33:47.326Z,12.60
2019-02-23T10:34:39.122Z,12.82
2019-02-23T10:35:39.178Z,12.39
2019-02-23T10:36:39.226Z,12.64
2019-02-23T10:37:39.277Z,12.48
2019-02-23T10:38:39.383Z,12.41
2019-02-23T10:39:39.382Z,12.29
2019-02-23T10:40:39.426Z,12.33
2019-02-23T10:41:39.484Z,12.79
2019-02-23T10:42:39.532Z,12.77
2019-02-23T10:43:39.608Z,12.75
2019-02-23T10:44:39.635Z,12.79
2019-02-23T10:45:39.685Z,12.79
2019-02-23T10:46:39.729Z,12.78
2019-02-23T10:47:39.803Z,12.78
2019-02-23T10:48:39.856Z,12.81
2019-02-23T10:49:39.902Z,12.97
2019-02-23T10:50:39.936Z,12.97
2019-02-23T10:51:39.990Z,12.95
2019-02-23T10:52:40.036Z,12.85
2019-02-23T10:53:40.085Z,12.62
2019-02-23T10:54:40.182Z,12.79
2019-02-23T10:55:40.197Z,12.71
2019-02-23T10:56:40.335Z,12.70
2019-02-23T10:57:40.291Z,12.92
2019-02-23T10:58:40.341Z,12.97
2019-02-23T10:59:40.429Z,12.99
2019-02-23T11:00:40.439Z,13.20
2019-02-23T11:01:40.490Z,13.24
2019-02-23T11:02:40.549Z,13.52
2019-02-23T11:03:40.591Z,13.92
2019-02-23T11:04:40.675Z,13.84
2019-02-23T11:05:40.701Z,13.95
2019-02-23T11:06:40.750Z,14.02
2019-02-23T11:07:40.808Z,14.21
2019-02-23T11:08:40.861Z,14.37
2019-02-23T11:09:40.930Z,14.29
2019-02-23T11:10:40.961Z,13.81
2019-02-23T11:11:41.016Z,13.51
2019-02-23T11:12:41.108Z,13.02
2019-02-23T11:13:41.116Z,13.24
2019-02-23T11:14:41.160Z,13.12
2019-02-23T11:15:41.222Z,13.14
2019-02-23T11:16:41.251Z,12.93
2019-02-23T11:17:41.305Z,13.14
2019-02-23T11:18:41.369Z,13.51
2019-02-23T11:19:41.436Z,13.96
2019-02-23T11:20:41.477Z,14.29
2019-02-23T11:21:41.531Z,14.04
2019-02-23T11:22:41.559Z,14.01
2019-02-23T11:23:44.463Z,13.92
2019-02-23T11:24:41.659Z,13.95
2019-02-23T11:25:41.738Z,13.87
2019-02-23T11:26:41.763Z,13.83
2019-02-23T11:27:41.814Z,13.92
2019-02-23T11:28:41.872Z,14.21
2019-02-23T11:29:41.939Z,14.42
2019-02-23T11:30:41.988Z,14.50
2019-02-23T11:31:42.018Z,14.21
2019-02-23T11:32:42.072Z,13.88
2019-02-23T11:33:42.120Z,14.16
2019-02-23T11:34:42.180Z,13.98
2019-02-23T11:35:42.251Z,13.73
2019-02-23T11:36:42.280Z,13.54
2019-02-23T11:37:42.433Z,13.58
2019-02-23T11:38:42.379Z,13.46
2019-02-23T11:39:42.437Z,13.73
2019-02-23T11:40:42.501Z,13.58
2019-02-23T11:41:42.542Z,13.95
2019-02-23T11:42:42.587Z,13.99
2019-02-23T11:43:42.658Z,14.02
2019-02-23T11:44:42.704Z,14.06
2019-02-23T11:45:42.772Z,13.95
2019-02-23T11:46:59.370Z,13.81
2019-02-23T11:47:42.836Z,13.47
2019-02-23T11:48:42.904Z,13.55
2019-02-23T11:49:42.947Z,13.80
2019-02-23T11:50:43.024Z,13.99
2019-02-23T11:51:43.050Z,14.21
2019-02-23T11:52:43.103Z,14.38
2019-02-23T11:53:43.154Z,14.61
2019-02-23T11:54:44.205Z,14.47
2019-02-23T11:55:43.327Z,14.27
2019-02-23T11:56:43.339Z,14.37
2019-02-23T11:57:43.348Z,14.35
2019-02-23T11:58:43.401Z,14.32
2019-02-23T11:59:43.466Z,14.24
2019-02-23T12:00:43.516Z,14.17
2019-02-23T12:01:43.587Z,14.38
2019-02-23T12:02:52.127Z,14.13
2019-02-23T12:03:43.658Z,13.95
2019-02-23T12:04:43.855Z,13.99
2019-02-23T12:05:43.785Z,13.99
2019-02-23T12:06:43.852Z,14.25
2019-02-23T12:07:43.867Z,13.83
2019-02-23T12:08:43.917Z,13.79
2019-02-23T12:09:43.968Z,13.69
2019-02-23T12:10:44.023Z,13.70
2019-02-23T12:11:44.192Z,13.79
2019-02-23T12:12:44.123Z,13.83
2019-02-23T12:13:44.174Z,13.98
2019-02-23T12:14:44.241Z,14.27
2019-02-23T12:15:44.278Z,14.01
2019-02-23T12:16:44.358Z,13.83
2019-02-23T12:17:44.385Z,13.79
2019-02-23T12:18:44.451Z,13.84
2019-02-23T12:19:44.490Z,14.19
2019-02-23T12:20:44.543Z,14.07
2019-02-23T12:21:44.636Z,13.96
2019-02-23T12:22:44.637Z,13.81
2019-02-23T12:23:44.702Z,13.95
2019-02-23T12:24:44.752Z,13.91
2019-02-23T12:25:44.796Z,13.69
2019-02-23T12:26:44.864Z,13.59
2019-02-23T12:27:44.919Z,13.58
2019-02-23T12:28:44.956Z,13.54
2019-02-23T12:29:45.001Z,13.87
2019-02-23T12:30:45.055Z,13.80
2019-02-23T12:31:45.112Z,13.62
2019-02-23T12:32:45.200Z,13.55
2019-02-23T12:33:45.222Z,13.44
2019-02-23T12:34:45.262Z,13.43
2019-02-23T12:35:45.320Z,13.71
2019-02-23T12:36:45.427Z,13.79
2019-02-23T12:37:45.447Z,14.13
2019-02-23T12:38:45.472Z,13.76
2019-02-23T12:39:45.531Z,13.74
2019-02-23T12:40:45.577Z,14.01
2019-02-23T12:41:45.631Z,14.02
2019-02-23T12:42:45.699Z,13.81
2019-02-23T12:43:45.742Z,13.59
2019-02-23T12:44:45.783Z,13.56
2019-02-23T12:45:45.848Z,13.49
2019-02-23T12:46:45.884Z,13.36
2019-02-23T12:47:45.961Z,13.18
2019-02-23T12:48:46.000Z,13.22
2019-02-23T12:49:46.054Z,13.30
2019-02-23T12:50:46.106Z,13.36
2019-02-23T12:51:46.145Z,13.33
2019-02-23T12:52:46.237Z,13.49
2019-02-23T12:53:46.280Z,13.71
2019-02-23T12:54:46.301Z,13.96
2019-02-23T12:55:46.367Z,13.62
2019-02-23T12:56:46.428Z,13.33
2019-02-23T12:57:46.457Z,13.20
2019-02-23T12:58:48.696Z,13.27
2019-02-23T12:59:46.562Z,13.21
2019-02-23T13:00:46.616Z,13.36
2019-02-23T13:01:46.671Z,13.30
2019-02-23T13:02:46.727Z,13.03
2019-02-23T13:03:46.791Z,12.78
2019-02-23T13:04:46.833Z,12.85
2019-02-23T13:05:46.882Z,12.62
2019-02-23T13:06:46.937Z,12.62
2019-02-23T13:07:46.983Z,12.82
2019-02-23T13:08:47.072Z,12.93